This is the latest recevied weather packets stored in our database for station/object W2BP-13. If no packets are shown the sender has not sent any weather packets the latest 10 day(s).
| Time | Temp. | Humidity | Pressure | Rain* | Wind** | Luminosity | Snow |
|---|---|---|---|---|---|---|---|
| 1778329532 | 8.89° C | 81% | 1024.9 hPa | 0 mm | - | - | - |
| 1778328632 | 8.89° C | 78% | 1024.8 hPa | 0 mm | - | - | - |
| 1778327733 | 8.89° C | 78% | 1024.7 hPa | 0 mm | - | - | - |
| 1778326833 | 9.44° C | 76% | 1024.7 hPa | 0 mm | - | - | - |
| 1778325933 | 10° C | 75% | 1024.5 hPa | 0 mm | - | - | - |
| 1778325033 | 10° C | 75% | 1024.6 hPa | 0 mm | - | - | - |
| 1778324132 | 9.44° C | 78% | 1024.7 hPa | 0 mm | - | - | - |
| 1778323233 | 8.89° C | 80% | 1024.3 hPa | 0 mm | - | - | - |
| 1778322333 | 10° C | 76% | 1024.4 hPa | 0 mm | - | - | - |
| 1778321433 | 11.11° C | 72% | 1024.2 hPa | 0 mm | - | - | - |
| 1778320532 | 11.11° C | 71% | 1024.2 hPa | 0 mm | - | - | - |
| 1778319632 | 11.67° C | 69% | 1024.3 hPa | 0 mm | - | - | - |
| 1778318733 | 11.67° C | 69% | 1024 hPa | 0 mm | - | - | - |
| 1778317833 | 12.22° C | 68% | 1024.3 hPa | 0 mm | - | - | - |
| 1778316932 | 12.22° C | 68% | 1023.9 hPa | 0 mm | - | - | - |
| 1778316033 | 12.22° C | 68% | 1024.2 hPa | 0 mm | - | - | - |
| 1778315133 | 11.11° C | 72% | 1024.2 hPa | 0 mm | - | - | - |
| 1778314232 | 11.67° C | 70% | 1024 hPa | 0 mm | - | - | - |
| 1778313332 | 12.22° C | 69% | 1023.9 hPa | 0 mm | - | - | - |
| 1778312433 | 12.22° C | 67% | 1023.5 hPa | 0 mm | - | - | - |
| 1778311535 | 12.22° C | 66% | 1023.6 hPa | 0 mm | - | - | - |
| 1778310632 | 12.78° C | 66% | 1023.2 hPa | 0 mm | - | - | - |
| 1778309732 | 12.78° C | 65% | 1023.2 hPa | 0 mm | - | - | - |
| 1778308832 | 12.78° C | 65% | 1023.1 hPa | 0 mm | - | - | - |
| 1778307932 | 13.33° C | 62% | 1022.9 hPa | 0 mm | - | - | - |
* Rain latest hour (hover to see other rain measurements)
** Current wind speed in m/s (hover to see current wind gust speed)